Date,TemperatureHighF,TemperatureAvgF,TemperatureLowF,DewpointHighF,DewpointAvgF,DewpointLowF,HumidityHigh,HumidityAvg,HumidityLow,PressureMaxIn,PressureMinIn,WindSpeedMaxMPH,WindSpeedAvgMPH,GustSpeedMaxMPH,PrecipitationSumIn
2013-9-1,90.9,78.8,73.4,75.6,71.5,68.8,90,79,59,29.65,29.56,8,2,8,0.00
2013-9-2,81.9,75.9,72.3,74.4,72.3,69.6,93,89,73,29.59,29.47,6,1,6,0.04
2013-9-3,86.5,76.5,69.1,74.4,66.4,54.4,96,73,45,29.68,29.50,10,2,10,0.00
2013-9-4,87.1,72.2,62.6,58.4,54.1,48.9,79,56,29,29.82,29.68,11,3,11,0.00
2013-9-5,81.1,70.6,61.7,59.0,52.6,40.5,73,54,35,29.91,29.79,11,3,11,0.00
2013-9-6,77.9,64.5,55.0,50.1,44.2,40.5,63,49,34,30.09,29.91,11,2,11,0.00
2013-9-7,82.8,66.2,54.9,54.5,48.0,42.0,75,54,30,29.97,29.71,9,2,10,0.00
2013-9-8,86.4,73.3,64.2,63.6,56.5,43.2,80,57,39,29.82,29.62,10,4,12,0.00
2013-9-9,78.8,68.3,59.5,58.3,50.3,43.2,68,53,39,30.06,29.82,8,2,8,0.00
2013-9-10,90.9,77.5,68.9,72.0,65.7,58.1,80,68,52,30.03,29.82,12,3,12,0.00
2013-9-11,97.0,81.4,73.0,77.8,69.7,66.1,89,70,44,29.91,29.74,13,3,13,0.00
2013-9-12,91.9,79.1,72.7,72.2,68.2,63.0,86,70,45,29.79,29.47,14,3,14,0.00
2013-9-13,81.1,71.7,62.4,67.3,59.1,47.0,92,67,40,29.62,29.41,12,3,12,0.29
2013-9-14,72.9,61.5,54.3,48.5,44.9,41.5,72,55,40,29.91,29.62,11,3,11,0.00
2013-9-15,77.9,62.0,49.6,51.6,45.6,41.2,78,57,32,30.03,29.88,10,2,10,0.00
2013-9-16,70.9,64.1,60.1,59.9,55.6,50.3,84,74,57,30.03,29.85,9,2,9,0.04
2013-9-17,68.9,58.3,51.4,50.5,40.5,35.2,71,53,34,30.24,30.03,12,3,12,0.00
2013-9-18,75.0,59.3,48.2,49.6,44.1,39.3,73,58,39,30.15,29.94,5,2,6,0.00
2013-9-19,79.7,63.2,52.7,54.3,49.6,45.4,85,63,35,30.00,29.82,9,2,9,0.00
2013-9-20,60.8,57.8,56.3,53.3,50.4,49.4,82,76,68,29.91,29.88,6,3,6,0.00